Time,TemperatureF,DewpointF,PressureIn,WindDirection,WindDirectionDegrees,WindSpeedMPH,WindSpeedGustMPH,Humidity,HourlyPrecipIn,Conditions,Clouds,dailyrainin,SolarRadiationWatts/m^2,SoftwareType,DateUTC
2013-01-14 00:12:00,12.0,-4.0,-100.00,NNW,339,10.0,18.0,48,0.00,,,0.00,0.000000,,2013-01-14 08:12:00,
2013-01-14 00:22:00,12.0,-4.0,-100.00,NNW,339,10.0,18.0,48,0.00,,,0.00,0.000000,,2013-01-14 08:22:00,
2013-01-14 00:32:00,12.0,-4.0,-100.00,NNW,339,10.0,18.0,48,0.00,,,0.00,0.000000,,2013-01-14 08:32:00,
2013-01-14 00:42:00,12.0,-4.0,-100.00,NNW,339,10.0,18.0,48,0.00,,,0.00,0.000000,,2013-01-14 08:42:00,
2013-01-14 00:51:00,12.0,-3.0,-100.00,NW,323,8.0,19.0,50,0.00,,,-99.99,0.000000,,2013-01-14 08:51:00,
2013-01-14 01:22:00,12.0,-3.0,-100.00,NW,323,8.0,19.0,50,0.00,,,-99.99,0.000000,,2013-01-14 09:22:00,
2013-01-14 01:33:00,12.0,-3.0,-100.00,NW,323,8.0,19.0,50,0.00,,,-99.99,0.000000,,2013-01-14 09:33:00,
2013-01-14 01:42:00,12.0,-3.0,-100.00,NW,323,8.0,19.0,50,0.00,,,-99.99,0.000000,,2013-01-14 09:42:00,
2013-01-14 01:51:00,11.0,-4.0,-100.00,WNW,293,8.0,16.0,50,0.00,,,0.00,0.000000,,2013-01-14 09:51:00,
2013-01-14 02:22:00,11.0,-4.0,-100.00,WNW,293,8.0,16.0,50,0.00,,,0.00,0.000000,,2013-01-14 10:22:00,
2013-01-14 02:32:00,11.0,-4.0,-100.00,WNW,293,8.0,16.0,50,0.00,,,0.00,0.000000,,2013-01-14 10:32:00,
2013-01-14 02:42:00,11.0,-4.0,-100.00,WNW,293,8.0,16.0,50,0.00,,,0.00,0.000000,,2013-01-14 10:42:00,
2013-01-14 02:51:00,12.0,-4.0,-100.00,NW,314,12.0,23.0,48,0.00,,,0.00,0.000000,,2013-01-14 10:51:00,
2013-01-14 03:12:00,12.0,-4.0,-100.00,NW,314,12.0,23.0,48,0.00,,,0.00,0.000000,,2013-01-14 11:12:00,
2013-01-14 03:22:00,12.0,-4.0,-100.00,NW,314,12.0,23.0,48,0.00,,,0.00,0.000000,,2013-01-14 11:22:00,
2013-01-14 03:32:00,12.0,-4.0,-100.00,NW,314,12.0,23.0,48,0.00,,,0.00,0.000000,,2013-01-14 11:32:00,
2013-01-14 03:42:00,12.0,-4.0,-100.00,NW,314,12.0,23.0,48,0.00,,,0.00,0.000000,,2013-01-14 11:42:00,
2013-01-14 03:51:00,12.0,-8.0,-100.00,NW,311,13.0,26.0,40,0.00,,,0.00,0.000000,,2013-01-14 11:51:00,
2013-01-14 04:12:00,12.0,-8.0,-100.00,NW,311,13.0,26.0,40,0.00,,,0.00,0.000000,,2013-01-14 12:12:00,
2013-01-14 04:22:00,12.0,-8.0,-100.00,NW,311,13.0,26.0,40,0.00,,,0.00,0.000000,,2013-01-14 12:22:00,
2013-01-14 04:33:00,12.0,-8.0,-100.00,NW,311,13.0,26.0,40,0.00,,,0.00,0.000000,,2013-01-14 12:33:00,
2013-01-14 04:42:00,12.0,-8.0,-100.00,NW,311,13.0,26.0,40,0.00,,,0.00,0.000000,,2013-01-14 12:42:00,
2013-01-14 04:51:00,11.0,-12.0,-100.00,WNW,299,14.0,26.0,34,0.00,,,0.00,0.000000,,2013-01-14 12:51:00,
2013-01-14 05:12:00,11.0,-12.0,-100.00,WNW,299,14.0,26.0,34,0.00,,,0.00,0.000000,,2013-01-14 13:12:00,
2013-01-14 05:22:00,11.0,-12.0,-100.00,WNW,299,14.0,26.0,34,0.00,,,0.00,0.000000,,2013-01-14 13:22:00,
2013-01-14 05:33:00,11.0,-12.0,-100.00,WNW,299,14.0,26.0,34,0.00,,,0.00,0.000000,,2013-01-14 13:33:00,
2013-01-14 05:43:00,11.0,-12.0,-100.00,WNW,299,14.0,26.0,34,0.00,,,0.00,0.000000,,2013-01-14 13:43:00,
2013-01-14 05:51:00,11.0,-13.0,-100.00,NW,311,10.0,20.0,32,0.00,,,0.00,0.000000,,2013-01-14 13:51:00,
2013-01-14 06:12:00,11.0,-13.0,-100.00,NW,311,10.0,20.0,32,0.00,,,0.00,0.000000,,2013-01-14 14:12:00,
2013-01-14 06:22:00,11.0,-13.0,-100.00,NW,311,10.0,20.0,32,0.00,,,0.00,0.000000,,2013-01-14 14:22:00,
2013-01-14 06:33:00,11.0,-13.0,-100.00,NW,311,10.0,20.0,32,0.00,,,0.00,0.000000,,2013-01-14 14:33:00,
2013-01-14 06:42:00,11.0,-13.0,-100.00,NW,311,10.0,20.0,32,0.00,,,0.00,0.000000,,2013-01-14 14:42:00,
2013-01-14 06:51:00,11.0,-14.0,-100.00,NW,305,9.0,19.0,30,0.00,,,0.00,0.000000,,2013-01-14 14:51:00,
2013-01-14 07:12:00,11.0,-14.0,-100.00,NW,305,9.0,19.0,30,0.00,,,0.00,0.000000,,2013-01-14 15:12:00,
2013-01-14 07:23:00,11.0,-14.0,-100.00,NW,305,9.0,19.0,30,0.00,,,0.00,0.000000,,2013-01-14 15:23:00,
2013-01-14 07:33:00,11.0,-14.0,-100.00,NW,305,9.0,19.0,30,0.00,,,0.00,0.000000,,2013-01-14 15:33:00,
2013-01-14 07:43:00,11.0,-14.0,-100.00,NW,305,9.0,19.0,30,0.00,,,0.00,0.000000,,2013-01-14 15:43:00,
2013-01-14 07:51:00,16.0,-14.0,-100.00,WNW,300,11.0,24.0,24,0.00,,,0.00,86.000000,,2013-01-14 15:51:00,
2013-01-14 08:12:00,16.0,-14.0,-100.00,WNW,300,11.0,24.0,24,0.00,,,0.00,86.000000,,2013-01-14 16:12:00,
2013-01-14 08:23:00,16.0,-14.0,-100.00,WNW,300,11.0,24.0,24,0.00,,,0.00,86.000000,,2013-01-14 16:23:00,
2013-01-14 08:33:00,16.0,-14.0,-100.00,WNW,300,11.0,24.0,24,0.00,,,0.00,86.000000,,2013-01-14 16:33:00,
2013-01-14 08:42:00,16.0,-14.0,-100.00,WNW,300,11.0,24.0,24,0.00,,,0.00,86.000000,,2013-01-14 16:42:00,
2013-01-14 08:51:00,18.0,-13.0,-100.00,NW,311,14.0,28.0,23,0.00,,,0.00,325.000000,,2013-01-14 16:51:00,
2013-01-14 09:22:00,18.0,-13.0,-100.00,NW,311,14.0,28.0,23,0.00,,,0.00,325.000000,,2013-01-14 17:22:00,
2013-01-14 09:33:00,18.0,-13.0,-100.00,NW,311,14.0,28.0,23,0.00,,,0.00,325.000000,,2013-01-14 17:33:00,
2013-01-14 09:42:00,18.0,-13.0,-100.00,NW,311,14.0,28.0,23,0.00,,,0.00,325.000000,,2013-01-14 17:42:00,
2013-01-14 09:51:00,20.0,-13.0,-100.00,NW,315,10.0,27.0,22,0.00,,,0.00,532.000000,,2013-01-14 17:51:00,
2013-01-14 10:12:00,20.0,-13.0,-100.00,NW,315,10.0,27.0,22,0.00,,,0.00,532.000000,,2013-01-14 18:12:00,
2013-01-14 10:22:00,20.0,-13.0,-100.00,NW,315,10.0,27.0,22,0.00,,,0.00,532.000000,,2013-01-14 18:22:00,
2013-01-14 10:33:00,20.0,-13.0,-100.00,NW,315,10.0,27.0,22,0.00,,,0.00,532.000000,,2013-01-14 18:33:00,
2013-01-14 10:42:00,20.0,-13.0,-100.00,NW,315,10.0,27.0,22,0.00,,,0.00,532.000000,,2013-01-14 18:42:00,
2013-01-14 10:51:00,23.0,-14.0,-100.00,NW,325,10.0,21.0,18,0.00,,,0.00,682.000000,,2013-01-14 18:51:00,
2013-01-14 11:22:00,23.0,-14.0,-100.00,NW,325,10.0,21.0,18,0.00,,,0.00,682.000000,,2013-01-14 19:22:00,
2013-01-14 11:33:00,23.0,-14.0,-100.00,NW,325,10.0,21.0,18,0.00,,,0.00,682.000000,,2013-01-14 19:33:00,
2013-01-14 11:42:00,23.0,-14.0,-100.00,NW,325,10.0,21.0,18,0.00,,,0.00,682.000000,,2013-01-14 19:42:00,
2013-01-14 11:51:00,24.0,-13.0,-100.00,NNW,338,16.0,30.0,18,0.00,,,0.00,764.000000,,2013-01-14 19:51:00,
2013-01-14 12:22:00,24.0,-13.0,-100.00,NNW,338,16.0,30.0,18,0.00,,,0.00,764.000000,,2013-01-14 20:22:00,
2013-01-14 12:33:00,24.0,-13.0,-100.00,NNW,338,16.0,30.0,18,0.00,,,0.00,764.000000,,2013-01-14 20:33:00,
2013-01-14 12:42:00,24.0,-13.0,-100.00,NNW,338,16.0,30.0,18,0.00,,,0.00,764.000000,,2013-01-14 20:42:00,
2013-01-14 12:51:00,24.0,-14.0,-100.00,NW,325,15.0,30.0,17,0.00,,,0.00,771.000000,,2013-01-14 20:51:00,
2013-01-14 13:12:00,24.0,-14.0,-100.00,NW,325,15.0,30.0,17,0.00,,,0.00,771.000000,,2013-01-14 21:12:00,
2013-01-14 13:22:00,24.0,-14.0,-100.00,NW,325,15.0,30.0,17,0.00,,,0.00,771.000000,,2013-01-14 21:22:00,
2013-01-14 13:33:00,24.0,-14.0,-100.00,NW,325,15.0,30.0,17,0.00,,,0.00,771.000000,,2013-01-14 21:33:00,
2013-01-14 13:42:00,24.0,-14.0,-100.00,NW,325,15.0,30.0,17,0.00,,,0.00,771.000000,,2013-01-14 21:42:00,
2013-01-14 13:51:00,25.0,-15.0,-100.00,SSE,154,14.0,31.0,16,0.00,,,0.00,702.000000,,2013-01-14 21:51:00,
2013-01-14 14:23:00,25.0,-15.0,-100.00,SSE,154,14.0,31.0,16,0.00,,,0.00,702.000000,,2013-01-14 22:23:00,
2013-01-14 14:32:00,25.0,-15.0,-100.00,SSE,154,14.0,31.0,16,0.00,,,0.00,702.000000,,2013-01-14 22:32:00,
2013-01-14 14:42:00,25.0,-15.0,-100.00,SSE,154,14.0,31.0,16,0.00,,,0.00,702.000000,,2013-01-14 22:42:00,
2013-01-14 14:51:00,25.0,-12.0,-100.00,NW,318,14.0,33.0,18,0.00,,,0.00,562.000000,,2013-01-14 22:51:00,
2013-01-14 15:12:00,25.0,-12.0,-100.00,NW,318,14.0,33.0,18,0.00,,,0.00,562.000000,,2013-01-14 23:12:00,
2013-01-14 15:22:00,25.0,-12.0,-100.00,NW,318,14.0,33.0,18,0.00,,,0.00,562.000000,,2013-01-14 23:22:00,
2013-01-14 15:33:00,25.0,-12.0,-100.00,NW,318,14.0,33.0,18,0.00,,,0.00,562.000000,,2013-01-14 23:33:00,
2013-01-14 15:42:00,25.0,-12.0,-100.00,NW,318,14.0,33.0,18,0.00,,,0.00,562.000000,,2013-01-14 23:42:00,
2013-01-14 15:51:00,23.0,-13.0,-100.00,NW,317,13.0,32.0,19,0.00,,,0.00,359.000000,,2013-01-14 23:51:00,
2013-01-14 16:12:00,23.0,-13.0,-100.00,NW,317,13.0,32.0,19,0.00,,,0.00,359.000000,,2013-01-15 00:12:00,
2013-01-14 16:22:00,23.0,-13.0,-100.00,NW,317,13.0,32.0,19,0.00,,,0.00,359.000000,,2013-01-15 00:22:00,
2013-01-14 16:32:00,23.0,-13.0,-100.00,NW,317,13.0,32.0,19,0.00,,,0.00,359.000000,,2013-01-15 00:32:00,
2013-01-14 16:43:00,23.0,-13.0,-100.00,NW,317,13.0,32.0,19,0.00,,,0.00,359.000000,,2013-01-15 00:43:00,
2013-01-14 16:51:00,20.0,-10.0,-100.00,NW,315,14.0,32.0,25,0.00,,,0.00,110.000000,,2013-01-15 00:51:00,
2013-01-14 17:22:00,20.0,-10.0,-100.00,NW,315,14.0,32.0,25,0.00,,,0.00,110.000000,,2013-01-15 01:22:00,
2013-01-14 17:32:00,20.0,-10.0,-100.00,NW,315,14.0,32.0,25,0.00,,,0.00,110.000000,,2013-01-15 01:32:00,
2013-01-14 17:42:00,20.0,-10.0,-100.00,NW,315,14.0,32.0,25,0.00,,,0.00,110.000000,,2013-01-15 01:42:00,
2013-01-14 17:51:00,21.0,-7.0,-100.00,NW,317,14.0,37.0,28,0.00,,,0.00,1.000000,,2013-01-15 01:51:00,
2013-01-14 18:22:00,21.0,-7.0,-100.00,NW,317,14.0,37.0,28,0.00,,,0.00,1.000000,,2013-01-15 02:22:00,
2013-01-14 18:32:00,21.0,-7.0,-100.00,NW,317,14.0,37.0,28,0.00,,,0.00,1.000000,,2013-01-15 02:32:00,
2013-01-14 18:42:00,21.0,-7.0,-100.00,NW,317,14.0,37.0,28,0.00,,,0.00,1.000000,,2013-01-15 02:42:00,
2013-01-14 18:51:00,20.0,-6.0,-100.00,NNW,336,18.0,30.0,30,0.00,,,0.00,0.000000,,2013-01-15 02:51:00,
2013-01-14 19:22:00,20.0,-6.0,-100.00,NNW,336,18.0,30.0,30,0.00,,,0.00,0.000000,,2013-01-15 03:22:00,
2013-01-14 19:33:00,20.0,-6.0,-100.00,NNW,336,18.0,30.0,30,0.00,,,0.00,0.000000,,2013-01-15 03:33:00,
2013-01-14 19:42:00,20.0,-6.0,-100.00,NNW,336,18.0,30.0,30,0.00,,,0.00,0.000000,,2013-01-15 03:42:00,
2013-01-14 19:51:00,21.0,-6.0,-100.00,NW,319,14.0,35.0,29,0.00,,,0.00,0.000000,,2013-01-15 03:51:00,
2013-01-14 20:12:00,21.0,-6.0,-100.00,NW,319,14.0,35.0,29,0.00,,,0.00,0.000000,,2013-01-15 04:12:00,
2013-01-14 20:22:00,21.0,-6.0,-100.00,NW,319,14.0,35.0,29,0.00,,,0.00,0.000000,,2013-01-15 04:22:00,
2013-01-14 20:32:00,21.0,-6.0,-100.00,NW,319,14.0,35.0,29,0.00,,,0.00,0.000000,,2013-01-15 04:32:00,
2013-01-14 20:42:00,21.0,-6.0,-100.00,NW,319,14.0,35.0,29,0.00,,,0.00,0.000000,,2013-01-15 04:42:00,
2013-01-14 20:51:00,21.0,-6.0,-100.00,NW,312,14.0,31.0,29,0.00,,,0.00,0.000000,,2013-01-15 04:51:00,
2013-01-14 21:12:00,21.0,-6.0,-100.00,NW,312,14.0,31.0,29,0.00,,,0.00,0.000000,,2013-01-15 05:12:00,
2013-01-14 21:22:00,21.0,-6.0,-100.00,NW,312,14.0,31.0,29,0.00,,,0.00,0.000000,,2013-01-15 05:22:00,
2013-01-14 21:33:00,21.0,-6.0,-100.00,NW,312,14.0,31.0,29,0.00,,,0.00,0.000000,,2013-01-15 05:33:00,
2013-01-14 21:42:00,21.0,-6.0,-100.00,NW,312,14.0,31.0,29,0.00,,,0.00,0.000000,,2013-01-15 05:42:00,
2013-01-14 21:51:00,21.0,-7.0,-100.00,NW,315,14.0,30.0,28,0.00,,,0.00,0.000000,,2013-01-15 05:51:00,
2013-01-14 22:22:00,21.0,-7.0,-100.00,NW,315,14.0,30.0,28,0.00,,,0.00,0.000000,,2013-01-15 06:22:00,
2013-01-14 22:32:00,21.0,-7.0,-100.00,NW,315,14.0,30.0,28,0.00,,,0.00,0.000000,,2013-01-15 06:32:00,
2013-01-14 22:42:00,21.0,-7.0,-100.00,NW,315,14.0,30.0,28,0.00,,,0.00,0.000000,,2013-01-15 06:42:00,
2013-01-14 22:51:00,23.0,-1.0,-100.00,NW,318,14.0,30.0,35,0.00,,,0.00,0.000000,,2013-01-15 06:51:00,
2013-01-14 23:12:00,23.0,-1.0,-100.00,NW,318,14.0,30.0,35,0.00,,,0.00,0.000000,,2013-01-15 07:12:00,
2013-01-14 23:22:00,23.0,-1.0,-100.00,NW,318,14.0,30.0,35,0.00,,,0.00,0.000000,,2013-01-15 07:22:00,
2013-01-14 23:32:00,23.0,-1.0,-100.00,NW,318,14.0,30.0,35,0.00,,,0.00,0.000000,,2013-01-15 07:32:00,
2013-01-14 23:42:00,23.0,-1.0,-100.00,NW,318,14.0,30.0,35,0.00,,,0.00,0.000000,,2013-01-15 07:42:00,
2013-01-14 23:51:00,24.0,2.0,-100.00,NNW,329,12.0,26.0,37,0.00,,,0.00,0.000000,,2013-01-15 07:51:00,